createdAt,value
2019-04-16T00:00:12.892Z,71.3
2019-04-16T00:17:20.127Z,71.7
2019-04-16T00:32:21.257Z,68.6
2019-04-16T00:45:02.674Z,70.6
2019-04-16T01:00:03.651Z,69.1
2019-04-16T01:15:03.783Z,71.7
2019-04-16T01:30:06.960Z,75.5
2019-04-16T01:47:14.551Z,73.1
2019-04-16T02:00:08.858Z,75.7
2019-04-16T02:17:14.742Z,74.9
2019-04-16T02:30:06.165Z,73.8
2019-04-16T02:45:04.501Z,73.2
2019-04-16T03:00:04.584Z,72.4
2019-04-16T03:15:04.586Z,74.9
2019-04-16T03:32:16.668Z,73.1
2019-04-16T03:45:10.392Z,72.2
2019-04-16T04:00:13.461Z,72.5
2019-04-16T04:15:07.237Z,72.8
2019-04-16T04:30:07.248Z,73
2019-04-16T04:47:20.220Z,73.2
2019-04-16T05:00:09.888Z,72.5
2019-04-16T05:17:17.944Z,72.3
2019-04-16T05:32:17.030Z,73.4
2019-04-16T05:45:07.934Z,73.5
2019-04-16T06:00:10.720Z,74.3
2019-04-16T06:15:07.951Z,74.8
2019-04-16T06:30:08.113Z,76.1
2019-04-16T06:45:07.964Z,76.9
2019-04-16T07:00:08.420Z,78.9
2019-04-16T07:15:02.875Z,75.3
2019-04-16T07:30:09.441Z,75.4
2019-04-16T07:45:05.235Z,67.7
2019-04-16T08:00:10.027Z,58.9
2019-04-16T08:15:15.684Z,55.5
2019-04-16T08:34:27.104Z,54.6
2019-04-16T08:45:09.385Z,51.8
2019-04-16T09:02:18.361Z,47.1
2019-04-16T09:15:09.189Z,42
2019-04-16T09:32:20.603Z,43.9
2019-04-16T09:47:19.672Z,40
2019-04-16T10:00:10.318Z,40.7
2019-04-16T10:15:10.445Z,38.7
2019-04-16T10:30:10.433Z,38
2019-04-16T10:47:20.739Z,43.7
2019-04-16T11:00:11.177Z,41.9
2019-04-16T11:17:22.322Z,39.3
2019-04-16T11:30:03.129Z,41.3
2019-04-16T11:45:03.680Z,37.8
2019-04-16T12:00:09.382Z,38.7
2019-04-16T12:15:03.946Z,41
2019-04-16T12:30:04.139Z,43.2
2019-04-16T12:47:14.700Z,41.7
2019-04-16T13:00:04.145Z,39.1
2019-04-16T13:15:04.363Z,38.6
2019-04-16T13:30:05.375Z,37.2
2019-04-16T13:47:17.109Z,37.7
2019-04-16T14:00:06.521Z,40.2
2019-04-16T14:15:09.558Z,32.3
2019-04-16T14:32:20.480Z,29.5
2019-04-16T14:45:11.080Z,27.9
2019-04-16T15:00:11.478Z,31.9
2019-04-16T15:17:21.780Z,32.8
2019-04-16T15:30:12.522Z,32.2
2019-04-16T15:45:09.888Z,32.4
2019-04-16T16:00:04.955Z,35.5
2019-04-16T16:15:11.642Z,36.9
2019-04-16T16:30:03.325Z,37.3
2019-04-16T16:45:03.638Z,39.3
2019-04-16T17:00:03.699Z,42.7
2019-04-16T17:15:03.982Z,45.1
2019-04-16T17:32:15.514Z,46.3
2019-04-16T17:45:04.687Z,48
2019-04-16T18:00:07.386Z,52
2019-04-16T18:17:18.923Z,50.2
2019-04-16T18:30:12.919Z,51.5
2019-04-16T18:45:03.805Z,55.4
2019-04-16T19:00:05.674Z,54.8
2019-04-16T19:17:17.131Z,54.5
2019-04-16T19:30:05.894Z,57
2019-04-16T19:47:15.329Z,57.3
2019-04-16T20:00:06.262Z,59.3
2019-04-16T20:17:17.567Z,59.8
2019-04-16T20:30:08.287Z,60.7
2019-04-16T20:47:17.756Z,60.4
2019-04-16T21:02:20.927Z,63.3
2019-04-16T21:19:30.968Z,62.5
2019-04-16T21:30:13.698Z,62.9
2019-04-16T21:49:38.660Z,68
2019-04-16T22:00:11.282Z,68.4
2019-04-16T22:15:02.945Z,64.7
2019-04-16T22:30:12.969Z,66.7
2019-04-16T22:45:13.349Z,64.8
2019-04-16T23:02:16.597Z,63.5
2019-04-16T23:15:03.823Z,65.1
2019-04-16T23:30:03.957Z,66
2019-04-16T23:45:04.220Z,67.5
